sensor_id;sensor_type;location;lat;lon;timestamp;temperature;humidity
27781;DHT22;15167;1.318;103.762;2022-11-12T00:00:02;25.50;99.90
27781;DHT22;15167;1.318;103.762;2022-11-12T00:02:28;25.50;99.90
27781;DHT22;15167;1.318;103.762;2022-11-12T00:04:54;25.60;99.90
27781;DHT22;15167;1.318;103.762;2022-11-12T00:07:20;25.60;99.90
27781;DHT22;15167;1.318;103.762;2022-11-12T00:09:46;25.70;99.90
27781;DHT22;15167;1.318;103.762;2022-11-12T00:12:13;25.70;99.90
27781;DHT22;15167;1.318;103.762;2022-11-12T00:14:39;25.70;99.90
27781;DHT22;15167;1.318;103.762;2022-11-12T00:17:05;25.80;99.90
27781;DHT22;15167;1.318;103.762;2022-11-12T00:19:31;25.80;99.90
27781;DHT22;15167;1.318;103.762;2022-11-12T00:21:57;25.80;99.90
27781;DHT22;15167;1.318;103.762;2022-11-12T00:24:23;25.80;99.90
27781;DHT22;15167;1.318;103.762;2022-11-12T00:26:49;25.90;99.90
27781;DHT22;15167;1.318;103.762;2022-11-12T00:29:15;26.00;99.90
27781;DHT22;15167;1.318;103.762;2022-11-12T00:31:41;26.00;99.90
27781;DHT22;15167;1.318;103.762;2022-11-12T00:34:07;26.00;99.90
27781;DHT22;15167;1.318;103.762;2022-11-12T00:36:33;26.10;99.90
27781;DHT22;15167;1.318;103.762;2022-11-12T00:38:59;26.10;99.90
27781;DHT22;15167;1.318;103.762;2022-11-12T00:41:26;26.20;99.90
27781;DHT22;15167;1.318;103.762;2022-11-12T00:43:52;26.20;99.90
27781;DHT22;15167;1.318;103.762;2022-11-12T00:46:18;26.30;99.90
27781;DHT22;15167;1.318;103.762;2022-11-12T00:48:44;26.30;99.90
27781;DHT22;15167;1.318;103.762;2022-11-12T00:51:11;26.30;99.90
27781;DHT22;15167;1.318;103.762;2022-11-12T00:53:37;26.30;99.90
27781;DHT22;15167;1.318;103.762;2022-11-12T00:56:03;26.30;99.90
27781;DHT22;15167;1.318;103.762;2022-11-12T00:58:30;26.30;99.90
27781;DHT22;15167;1.318;103.762;2022-11-12T01:00:56;26.40;99.90
27781;DHT22;15167;1.318;103.762;2022-11-12T01:03:22;26.40;99.90
27781;DHT22;15167;1.318;103.762;2022-11-12T01:05:49;26.40;99.90
27781;DHT22;15167;1.318;103.762;2022-11-12T01:08:15;26.40;99.90
27781;DHT22;15167;1.318;103.762;2022-11-12T01:10:41;26.40;99.90
27781;DHT22;15167;1.318;103.762;2022-11-12T01:13:07;26.40;99.90
27781;DHT22;15167;1.318;103.762;2022-11-12T01:15:33;26.30;99.90
27781;DHT22;15167;1.318;103.762;2022-11-12T01:17:59;26.30;99.90
27781;DHT22;15167;1.318;103.762;2022-11-12T01:20:25;26.30;99.90
27781;DHT22;15167;1.318;103.762;2022-11-12T01:22:51;26.30;99.90
27781;DHT22;15167;1.318;103.762;2022-11-12T01:25:17;26.40;99.90
27781;DHT22;15167;1.318;103.762;2022-11-12T01:27:43;26.40;99.90
27781;DHT22;15167;1.318;103.762;2022-11-12T01:30:09;26.40;99.90
27781;DHT22;15167;1.318;103.762;2022-11-12T01:32:36;26.50;99.90
27781;DHT22;15167;1.318;103.762;2022-11-12T01:35:02;26.60;99.90
27781;DHT22;15167;1.318;103.762;2022-11-12T01:37:28;26.70;99.90
27781;DHT22;15167;1.318;103.762;2022-11-12T01:39:54;26.70;99.90
27781;DHT22;15167;1.318;103.762;2022-11-12T01:42:22;26.80;99.90
27781;DHT22;15167;1.318;103.762;2022-11-12T01:44:50;26.80;99.90
27781;DHT22;15167;1.318;103.762;2022-11-12T01:47:20;26.80;99.90
27781;DHT22;15167;1.318;103.762;2022-11-12T01:50:04;26.80;99.90
27781;DHT22;15167;1.318;103.762;2022-11-12T01:52:36;26.90;99.90
27781;DHT22;15167;1.318;103.762;2022-11-12T01:55:07;26.90;99.90
27781;DHT22;15167;1.318;103.762;2022-11-12T01:57:36;27.00;99.90
27781;DHT22;15167;1.318;103.762;2022-11-12T02:00:05;27.00;99.90
27781;DHT22;15167;1.318;103.762;2022-11-12T02:02:33;27.10;99.90
27781;DHT22;15167;1.318;103.762;2022-11-12T02:05:00;27.10;99.90
27781;DHT22;15167;1.318;103.762;2022-11-12T02:07:27;27.10;99.90
27781;DHT22;15167;1.318;103.762;2022-11-12T02:09:53;27.10;99.90
27781;DHT22;15167;1.318;103.762;2022-11-12T02:12:19;27.20;99.90
27781;DHT22;15167;1.318;103.762;2022-11-12T02:15:04;27.40;99.90
27781;DHT22;15167;1.318;103.762;2022-11-12T02:17:30;27.30;99.90
27781;DHT22;15167;1.318;103.762;2022-11-12T02:19:57;27.40;99.90
27781;DHT22;15167;1.318;103.762;2022-11-12T02:22:24;27.40;99.90
27781;DHT22;15167;1.318;103.762;2022-11-12T02:24:50;27.30;99.90
27781;DHT22;15167;1.318;103.762;2022-11-12T02:27:16;27.30;99.90
27781;DHT22;15167;1.318;103.762;2022-11-12T02:29:42;27.40;99.90
27781;DHT22;15167;1.318;103.762;2022-11-12T02:32:11;27.40;99.90
27781;DHT22;15167;1.318;103.762;2022-11-12T02:34:38;27.60;99.90
27781;DHT22;15167;1.318;103.762;2022-11-12T02:37:04;27.70;99.90
27781;DHT22;15167;1.318;103.762;2022-11-12T02:39:30;27.80;99.90
27781;DHT22;15167;1.318;103.762;2022-11-12T02:41:57;27.90;99.90
27781;DHT22;15167;1.318;103.762;2022-11-12T02:44:23;27.70;99.90
27781;DHT22;15167;1.318;103.762;2022-11-12T02:46:49;27.70;99.90
27781;DHT22;15167;1.318;103.762;2022-11-12T02:49:15;27.70;99.90
27781;DHT22;15167;1.318;103.762;2022-11-12T02:51:41;27.70;99.90
27781;DHT22;15167;1.318;103.762;2022-11-12T02:54:07;27.80;99.90
27781;DHT22;15167;1.318;103.762;2022-11-12T02:56:33;27.80;99.90
27781;DHT22;15167;1.318;103.762;2022-11-12T02:59:00;27.80;99.90
27781;DHT22;15167;1.318;103.762;2022-11-12T03:01:26;28.00;99.90
27781;DHT22;15167;1.318;103.762;2022-11-12T03:03:52;28.10;99.90
27781;DHT22;15167;1.318;103.762;2022-11-12T03:06:18;28.30;99.90
27781;DHT22;15167;1.318;103.762;2022-11-12T03:08:44;28.40;99.90
27781;DHT22;15167;1.318;103.762;2022-11-12T03:11:12;28.50;99.90
27781;DHT22;15167;1.318;103.762;2022-11-12T03:13:38;28.50;99.90
27781;DHT22;15167;1.318;103.762;2022-11-12T03:16:04;28.80;99.90
27781;DHT22;15167;1.318;103.762;2022-11-12T03:18:30;28.90;99.90
27781;DHT22;15167;1.318;103.762;2022-11-12T03:20:56;29.10;99.90
27781;DHT22;15167;1.318;103.762;2022-11-12T03:23:22;29.30;99.90
27781;DHT22;15167;1.318;103.762;2022-11-12T03:25:50;29.40;99.90
27781;DHT22;15167;1.318;103.762;2022-11-12T03:28:16;29.50;99.90
27781;DHT22;15167;1.318;103.762;2022-11-12T03:30:43;29.60;99.90
27781;DHT22;15167;1.318;103.762;2022-11-12T03:33:10;29.70;99.90
27781;DHT22;15167;1.318;103.762;2022-11-12T03:35:37;29.80;99.90
27781;DHT22;15167;1.318;103.762;2022-11-12T03:38:03;29.90;99.90
27781;DHT22;15167;1.318;103.762;2022-11-12T03:40:30;29.80;99.90
27781;DHT22;15167;1.318;103.762;2022-11-12T03:42:56;29.70;99.90
27781;DHT22;15167;1.318;103.762;2022-11-12T03:45:23;29.60;99.90
27781;DHT22;15167;1.318;103.762;2022-11-12T03:47:50;29.40;99.90
27781;DHT22;15167;1.318;103.762;2022-11-12T03:50:17;29.30;99.90
27781;DHT22;15167;1.318;103.762;2022-11-12T03:52:44;29.10;99.90
27781;DHT22;15167;1.318;103.762;2022-11-12T03:55:11;28.90;99.90
27781;DHT22;15167;1.318;103.762;2022-11-12T03:57:38;28.90;99.90
27781;DHT22;15167;1.318;103.762;2022-11-12T04:00:05;28.80;99.90
27781;DHT22;15167;1.318;103.762;2022-11-12T04:02:31;28.80;99.90
27781;DHT22;15167;1.318;103.762;2022-11-12T04:04:57;28.80;99.90
27781;DHT22;15167;1.318;103.762;2022-11-12T04:07:42;28.80;99.90
27781;DHT22;15167;1.318;103.762;2022-11-12T04:10:26;28.90;99.90
27781;DHT22;15167;1.318;103.762;2022-11-12T04:12:54;28.80;99.90
27781;DHT22;15167;1.318;103.762;2022-11-12T04:15:38;28.80;99.90
27781;DHT22;15167;1.318;103.762;2022-11-12T04:18:04;28.80;99.90
27781;DHT22;15167;1.318;103.762;2022-11-12T04:20:48;28.90;99.90
27781;DHT22;15167;1.318;103.762;2022-11-12T04:23:33;28.90;99.90
27781;DHT22;15167;1.318;103.762;2022-11-12T04:25:59;28.90;99.90
27781;DHT22;15167;1.318;103.762;2022-11-12T04:28:43;28.90;99.90
27781;DHT22;15167;1.318;103.762;2022-11-12T04:31:29;28.90;99.90
27781;DHT22;15167;1.318;103.762;2022-11-12T04:33:55;28.80;99.90
27781;DHT22;15167;1.318;103.762;2022-11-12T04:36:41;28.70;99.90
27781;DHT22;15167;1.318;103.762;2022-11-12T04:39:07;28.60;99.90
27781;DHT22;15167;1.318;103.762;2022-11-12T04:41:33;28.60;99.90
27781;DHT22;15167;1.318;103.762;2022-11-12T04:44:18;28.50;99.90
27781;DHT22;15167;1.318;103.762;2022-11-12T04:47:02;28.40;99.90
27781;DHT22;15167;1.318;103.762;2022-11-12T04:49:28;28.40;99.90
27781;DHT22;15167;1.318;103.762;2022-11-12T04:51:54;28.30;99.90
27781;DHT22;15167;1.318;103.762;2022-11-12T04:54:29;28.30;99.90
27781;DHT22;15167;1.318;103.762;2022-11-12T04:56:55;28.30;99.90
27781;DHT22;15167;1.318;103.762;2022-11-12T04:59:21;28.20;99.90
27781;DHT22;15167;1.318;103.762;2022-11-12T05:01:47;28.10;99.90
27781;DHT22;15167;1.318;103.762;2022-11-12T05:04:14;27.90;99.90
27781;DHT22;15167;1.318;103.762;2022-11-12T05:06:40;27.60;99.90
27781;DHT22;15167;1.318;103.762;2022-11-12T05:09:18;27.40;99.90
27781;DHT22;15167;1.318;103.762;2022-11-12T05:11:45;27.30;99.90
27781;DHT22;15167;1.318;103.762;2022-11-12T05:14:11;27.30;99.90
27781;DHT22;15167;1.318;103.762;2022-11-12T05:16:38;27.20;99.90
27781;DHT22;15167;1.318;103.762;2022-11-12T05:19:04;27.20;99.90
27781;DHT22;15167;1.318;103.762;2022-11-12T05:21:30;27.10;99.90
27781;DHT22;15167;1.318;103.762;2022-11-12T05:24:15;27.00;99.90
27781;DHT22;15167;1.318;103.762;2022-11-12T05:26:41;27.00;99.90
27781;DHT22;15167;1.318;103.762;2022-11-12T05:29:07;27.00;99.90
